20TX weather

Peterson Regional Medical Center Heliport
Kerrville, Texas, United States

Public forecast

Using degrees Fahrenheit for public forecast. Weather courtesy of forecast.io.

Closest aviation weather report (METAR) to Peterson Regional Medical Center Heliport

Closest report is Kerrville Municipal Louis Schreiner Field, 5.1 nm (9.5 km) SE. Retrieved 2019/10/19 18:35 UTC (15 minutes ago):

KERV 191835Z AUTO 27008KT 10SM CLR 32/12 A2982 RMK AO2 T03220115

Closest aviation forecast (TAF) to Peterson Regional Medical Center Heliport

Closest forecast is Kimble County Airport, 42.6 nm (78.9 km) NW. Retrieved 2019/10/19 18:22 UTC (28 minutes ago):

TAF KJCT 191720Z 1918/2018 33009KT P6SM SKC FM200100 VRB02KT P6SM SKC